Nearby METAR Reports

 

LFSI - St. Dizier/Robin, France
Distance from station: SO 26km
Mise à jour: 27/09/2022 14:00
Thunderstorm
Thunderstorm
 Wind from O
Vent: O 24 km/h
Température: 13°C
Point de rosée: 8°C
Humidité: 72%
Baromètre: 1003 hPa
Clouds: Thunderstorm
Visibility: 10 km
Cloud details: Few Clouds 732 m
nuageux 1006 m
nuageux 1372 m
2022/09/27 12:00 LFSI 271200Z AUTO 26013KT 9999 FEW024/// BKN033/// BKN045/// ///CB 13/08 Q1003
LFSO - Nancy/Ochey (faf, France
Distance from station: ESE 62km
Mise à jour: 27/09/2022 14:00
Thunderstorm
Thunderstorm
 Wind from O
Vent: O 28 km/h
Température: 10°C
Wind Chill: 7°C
Point de rosée: 6°C
Humidité: 76%
Baromètre: 1003 hPa
Clouds: Thunderstorm
Visibility: 10 km
Cloud details: Few Clouds 1372 m
partiellement nuageux 1951 m
couvert 2256 m
2022/09/27 12:00 LFSO 271200Z AUTO 26015KT 9999 FEW045/// SCT064/// OVC074/// ///TCU 10/06 Q1003 TEMPO 3000 SHRA BECMG 26010G20KT
LFOK - Chalons/Vatry Fa, France
Distance from station: O 73km
Mise à jour: 27/09/2022 14:00
Thunderstorm
Thunderstorm
 Wind from O
Vent: O 31 km/h
Température: 13°C
Point de rosée: 9°C
Humidité: 77%
Baromètre: 1004 hPa
Clouds: Thunderstorm
Visibility: 10 km
Cloud details: Few Clouds 762 m
partiellement nuageux 1219 m
couvert 1890 m
2022/09/27 12:00 LFOK 271200Z AUTO 26017KT 9999 FEW025/// SCT040/// OVC062/// ///TCU 13/09 Q1004 TEMPO 25015G25KT 2000 SHRA BKN020CB
 
LFSN - Nancy/Essey, France
Distance from station: E 77km
Mise à jour: 27/09/2022 14:00
Thunderstorm
Thunderstorm
 Wind from OSO
Vent: OSO 19 km/h
Température: 11°C
Point de rosée: 7°C
Humidité: 77%
Baromètre: 1003 hPa
Clouds: Thunderstorm
Visibility: 10 km
2022/09/27 12:00 LFSN 271200Z AUTO 25010KT 210V300 9999 ///TCU 11/07 Q1003
LFSG - Epinal/Mirecourt, France
Distance from station: SE 81km
Mise à jour: 27/09/2022 14:00
pluie légère, Thunderstorm
pluie légère, Thunderstorm
 Wind from O
Vent: O 20 km/h
Température: 9°C
Wind Chill: 6°C
Point de rosée: 6°C
Humidité: 82%
Baromètre: 1004 hPa
Résumé: pluie légère
Clouds: Thunderstorm
Visibility: 10 km
Cloud details: Few Clouds 579 m
partiellement nuageux 1006 m
nuageux 1585 m
2022/09/27 12:00 LFSG 271200Z AUTO 28011KT 9999 -RA FEW019/// SCT033/// BKN052/// ///CB 09/06 Q1004
LFJL - Metz-Nancy-Lorra, France
Distance from station: ENE 82km
Mise à jour: 27/09/2022 14:00
Thunderstorm
Thunderstorm
 Wind from OSO
Vent: OSO 30 km/h
Température: 10°C
Wind Chill: 7°C
Point de rosée: 6°C
Humidité: 76%
Baromètre: 1002 hPa
Clouds: Thunderstorm
Visibility: 10 km
Cloud details: Few Clouds 792 m
partiellement nuageux 1280 m
nuageux 1707 m
2022/09/27 12:00 LFJL 271200Z AUTO 25016KT 9999 FEW026/// SCT042/// BKN056/// ///TCU 10/06 Q1002 TEMPO 4000 SHRA
 
LFQA - Reims/Prunay, France
Distance from station: ONO 89km
Mise à jour: 27/09/2022 14:00
nuageux
nuageux
 Wind from O
Vent: O 19 km/h
Température: 13°C
Point de rosée: 7°C
Humidité: 67%
Baromètre: 1003 hPa
Clouds: nuageux
Visibility: 10 km
Cloud details: nuageux 1067 m
nuageux 1402 m
nuageux 2865 m
2022/09/27 12:00 LFQA 271200Z AUTO 28010KT 250V310 9999 BKN035 BKN046 BKN094 13/07 Q1003
LFQB - Troyes/Barberey, France
Distance from station: OSO 99km
Mise à jour: 27/09/2022 14:00
Thunderstorm
Thunderstorm
 Wind from O
Vent: O 28 km/h
Température: 13°C
Point de rosée: 9°C
Humidité: 77%
Baromètre: 1005 hPa
Clouds: Thunderstorm
Visibility: 10 km
Cloud details: Few Clouds 579 m
nuageux 1646 m
couvert 1951 m
2022/09/27 12:00 LFQB 271200Z AUTO 26015KT 9999 FEW019/// BKN054/// OVC064/// ///CB 13/09 Q1005